Pagrindinis puslapis
METAR-TAF:

METAR-TAF

Oro uostai :

Irkutskas, Rusija

platuma: 52-16N, ilguma: 104-19E, Aukštis: 513 m

Dabartinis oras

Ataskaita buvo paskelbta 48 minutes, ne 16:00 UTC
Vėjas 4 kt iš Rytų
Temperatūra 9°C
Drėgmė 87%
Slėgis 1003 hPa
Matomumas 10 km arba daugiau
nėra debesų žemiau 1500 m ir nėra kamuolinių lietaus debesų

METAR: UIII 051600Z 08002MPS CAVOK 09/07 Q1003 R12/60D NOSIG RMK QFE710/0947

Laikas: 00:48 (16:48 UTC)

Prognozė

Ataskaita buvo paskelbta 2 valandos ir 48 minutes, ne 14:00 UTC
Prognozė galioja nuo 05 metu 15 UTC su 06 metu 15 UTC
Vėjas 6 kt iš Pietryčių
Matomumas 10 km arba daugiau
Tapsmas
nuo 06 metu 03 UTC su 06 metu 05 UTC
Vėjas 10 kt iš Šiaurės Vakarų
Su prošvaistėmis ne aukštis 1200 ft, Liūtiniai kamuoliniai debesys.
Laikinai
nuo 06 metu 05 UTC su 06 metu 12 UTC
Vėjas 19 kt iš Šiaurės Vakarų su gūsio iki 29 kt
perkūnija, lietus

TAF: UIII 051400Z 0515/0615 13003MPS 9999 NSC BECMG 0603/0605 32005MPS BKN012CB TEMPO 0605/0612 32010G15MPS -TSRA

Orai ataskaitas ir orų prognozės (METAR, TAF).

turimą stotys yra geltonos ir raudonos taškus žemėlapyje.

Perkelti pele per norėdami pamatyti stoties vardą.

Tada spustelėkite, norėdami matyti oro stebėjimo ir prognozės.

Norėdami pakeisti žemėlapį: spustelėkite ant žalios mygtukų su juodo kryžiaus žemyn,; žalią mygtuką su brūkšneliu, jei norite nutolinti; arba žalių rodyklių gretimoms žemėlapius.


METAR-TAF: